sensor_id;sensor_type;location;lat;lon;timestamp;pressure;altitude;pressure_sealevel;temperature;humidity
65756;BME280;52489;47.502;18.940;2022-11-20T00:00:10;97759.38;;;0.40;84.86
65756;BME280;52489;47.502;18.940;2022-11-20T00:01:15;97765.72;;;0.49;84.71
65756;BME280;52489;47.502;18.940;2022-11-20T00:02:19;97759.59;;;0.55;84.44
65756;BME280;52489;47.502;18.940;2022-11-20T00:03:22;97754.91;;;0.52;84.78
65756;BME280;52489;47.502;18.940;2022-11-20T00:04:25;97754.53;;;0.60;84.19
65756;BME280;52489;47.502;18.940;2022-11-20T00:05:27;97756.25;;;0.55;84.79
65756;BME280;52489;47.502;18.940;2022-11-20T00:06:30;97750.16;;;0.44;85.74
65756;BME280;52489;47.502;18.940;2022-11-20T00:07:33;97752.81;;;0.49;85.39
65756;BME280;52489;47.502;18.940;2022-11-20T00:08:37;97759.78;;;0.49;85.41
65756;BME280;52489;47.502;18.940;2022-11-20T00:09:39;97755.47;;;0.37;84.29
65756;BME280;52489;47.502;18.940;2022-11-20T00:10:42;97755.25;;;0.39;84.24
65756;BME280;52489;47.502;18.940;2022-11-20T00:11:45;97761.66;;;0.36;84.44
65756;BME280;52489;47.502;18.940;2022-11-20T00:12:49;97756.91;;;0.28;84.63
65756;BME280;52489;47.502;18.940;2022-11-20T00:13:54;97761.75;;;0.41;83.79
65756;BME280;52489;47.502;18.940;2022-11-20T00:14:57;97754.22;;;0.40;83.78
65756;BME280;52489;47.502;18.940;2022-11-20T00:16:01;97759.03;;;0.70;82.15
65756;BME280;52489;47.502;18.940;2022-11-20T00:17:04;97758.22;;;0.48;83.04
65756;BME280;52489;47.502;18.940;2022-11-20T00:18:07;97757.75;;;0.51;83.84
65756;BME280;52489;47.502;18.940;2022-11-20T00:19:10;97758.81;;;0.55;83.98
65756;BME280;52489;47.502;18.940;2022-11-20T00:20:14;97759.87;;;0.37;84.67
65756;BME280;52489;47.502;18.940;2022-11-20T00:21:21;97756.25;;;0.38;84.84
65756;BME280;52489;47.502;18.940;2022-11-20T00:22:24;97757.66;;;0.45;84.61
65756;BME280;52489;47.502;18.940;2022-11-20T00:23:27;97757.03;;;0.38;84.69
65756;BME280;52489;47.502;18.940;2022-11-20T00:24:29;97758.22;;;0.31;85.35
65756;BME280;52489;47.502;18.940;2022-11-20T00:25:35;97764.16;;;0.48;84.55
65756;BME280;52489;47.502;18.940;2022-11-20T00:26:38;97766.72;;;0.48;84.56
65756;BME280;52489;47.502;18.940;2022-11-20T00:27:41;97763.44;;;0.53;84.36
65756;BME280;52489;47.502;18.940;2022-11-20T00:28:48;97761.78;;;0.47;83.37
65756;BME280;52489;47.502;18.940;2022-11-20T00:29:51;97758.28;;;0.53;83.45
65756;BME280;52489;47.502;18.940;2022-11-20T00:31:00;97741.81;;;0.54;83.70
65756;BME280;52489;47.502;18.940;2022-11-20T00:32:03;97739.28;;;0.59;83.48
65756;BME280;52489;47.502;18.940;2022-11-20T00:33:06;97746.88;;;0.49;83.86
65756;BME280;52489;47.502;18.940;2022-11-20T00:34:09;97743.47;;;0.43;83.53
65756;BME280;52489;47.502;18.940;2022-11-20T00:35:12;97747.06;;;0.42;83.77
65756;BME280;52489;47.502;18.940;2022-11-20T00:36:26;97752.81;;;0.32;83.96
65756;BME280;52489;47.502;18.940;2022-11-20T00:37:29;97759.47;;;0.45;83.93
65756;BME280;52489;47.502;18.940;2022-11-20T00:38:33;97761.88;;;0.52;83.73
65756;BME280;52489;47.502;18.940;2022-11-20T00:39:35;97773.25;;;0.73;82.64
65756;BME280;52489;47.502;18.940;2022-11-20T00:40:38;97768.94;;;0.78;81.60
65756;BME280;52489;47.502;18.940;2022-11-20T00:41:41;97779.56;;;0.65;81.80
65756;BME280;52489;47.502;18.940;2022-11-20T00:42:43;97786.06;;;0.67;81.32
65756;BME280;52489;47.502;18.940;2022-11-20T00:43:46;97786.25;;;0.44;82.04
65756;BME280;52489;47.502;18.940;2022-11-20T00:44:48;97779.75;;;0.58;81.68
65756;BME280;52489;47.502;18.940;2022-11-20T00:45:57;97775.28;;;0.71;81.14
65756;BME280;52489;47.502;18.940;2022-11-20T00:47:03;97774.22;;;0.50;81.99
65756;BME280;52489;47.502;18.940;2022-11-20T00:48:06;97764.94;;;0.49;81.55
65756;BME280;52489;47.502;18.940;2022-11-20T00:49:09;97763.91;;;0.50;81.46
65756;BME280;52489;47.502;18.940;2022-11-20T00:50:11;97766.72;;;0.48;81.58
65756;BME280;52489;47.502;18.940;2022-11-20T00:51:16;97764.53;;;0.57;82.24
65756;BME280;52489;47.502;18.940;2022-11-20T00:52:19;97763.69;;;0.51;82.21
65756;BME280;52489;47.502;18.940;2022-11-20T00:53:22;97764.47;;;0.52;82.43
65756;BME280;52489;47.502;18.940;2022-11-20T00:54:25;97759.84;;;0.54;82.44
65756;BME280;52489;47.502;18.940;2022-11-20T00:55:27;97762.81;;;0.62;82.35
65756;BME280;52489;47.502;18.940;2022-11-20T00:56:34;97757.50;;;0.52;81.87
65756;BME280;52489;47.502;18.940;2022-11-20T00:57:36;97750.31;;;0.54;82.35
65756;BME280;52489;47.502;18.940;2022-11-20T00:58:41;97758.63;;;0.39;83.34
65756;BME280;52489;47.502;18.940;2022-11-20T00:59:43;97756.72;;;0.35;83.21
65756;BME280;52489;47.502;18.940;2022-11-20T01:00:46;97756.91;;;0.45;81.12
65756;BME280;52489;47.502;18.940;2022-11-20T01:01:49;97751.56;;;0.52;80.84
65756;BME280;52489;47.502;18.940;2022-11-20T01:02:52;97753.59;;;0.50;81.70
65756;BME280;52489;47.502;18.940;2022-11-20T01:03:57;97758.22;;;0.48;82.44
65756;BME280;52489;47.502;18.940;2022-11-20T01:05:03;97754.72;;;0.37;82.12
65756;BME280;52489;47.502;18.940;2022-11-20T01:06:11;97760.63;;;0.37;82.62
65756;BME280;52489;47.502;18.940;2022-11-20T01:07:14;97757.84;;;0.39;82.35
65756;BME280;52489;47.502;18.940;2022-11-20T01:08:17;97753.91;;;0.53;81.86
65756;BME280;52489;47.502;18.940;2022-11-20T01:09:19;97755.66;;;0.48;81.71
65756;BME280;52489;47.502;18.940;2022-11-20T01:10:22;97755.47;;;0.54;81.31
65756;BME280;52489;47.502;18.940;2022-11-20T01:11:30;97760.00;;;0.47;81.96
65756;BME280;52489;47.502;18.940;2022-11-20T01:12:33;97760.34;;;0.34;82.25
65756;BME280;52489;47.502;18.940;2022-11-20T01:13:37;97764.94;;;0.32;82.67
65756;BME280;52489;47.502;18.940;2022-11-20T01:14:40;97773.69;;;0.48;82.21
65756;BME280;52489;47.502;18.940;2022-11-20T01:15:46;97774.47;;;0.48;81.81
65756;BME280;52489;47.502;18.940;2022-11-20T01:16:50;97767.97;;;0.45;82.31
65756;BME280;52489;47.502;18.940;2022-11-20T01:17:53;97766.72;;;0.48;82.49
65756;BME280;52489;47.502;18.940;2022-11-20T01:18:58;97767.97;;;0.45;82.70
65756;BME280;52489;47.502;18.940;2022-11-20T01:20:02;97763.75;;;0.22;82.65
65756;BME280;52489;47.502;18.940;2022-11-20T01:21:07;97763.84;;;0.28;83.37
65756;BME280;52489;47.502;18.940;2022-11-20T01:22:11;97761.56;;;0.31;83.46
65756;BME280;52489;47.502;18.940;2022-11-20T01:23:15;97764.94;;;0.32;83.31
65756;BME280;52489;47.502;18.940;2022-11-20T01:24:19;97767.03;;;0.35;83.15
65756;BME280;52489;47.502;18.940;2022-11-20T01:25:23;97775.06;;;0.38;82.95
65756;BME280;52489;47.502;18.940;2022-11-20T01:26:28;97772.12;;;0.30;83.39
65756;BME280;52489;47.502;18.940;2022-11-20T01:27:31;97775.78;;;0.51;83.08
65756;BME280;52489;47.502;18.940;2022-11-20T01:28:34;97771.88;;;0.48;82.04
65756;BME280;52489;47.502;18.940;2022-11-20T01:29:37;97774.06;;;0.56;81.82
65756;BME280;52489;47.502;18.940;2022-11-20T01:30:40;97778.84;;;0.48;83.01
65756;BME280;52489;47.502;18.940;2022-11-20T01:31:43;97777.22;;;0.41;83.75
65756;BME280;52489;47.502;18.940;2022-11-20T01:32:46;97774.97;;;0.50;83.25
65756;BME280;52489;47.502;18.940;2022-11-20T01:33:51;97780.09;;;0.45;83.61
65756;BME280;52489;47.502;18.940;2022-11-20T01:34:54;97773.44;;;0.32;84.48
65756;BME280;52489;47.502;18.940;2022-11-20T01:36:04;97771.88;;;0.48;83.47
65756;BME280;52489;47.502;18.940;2022-11-20T01:37:07;97777.81;;;0.49;83.87
65756;BME280;52489;47.502;18.940;2022-11-20T01:38:10;97770.09;;;0.32;83.46
65756;BME280;52489;47.502;18.940;2022-11-20T01:40:17;97760.16;;;0.40;84.55
65756;BME280;52489;47.502;18.940;2022-11-20T01:41:21;97752.69;;;0.39;84.75
65756;BME280;52489;47.502;18.940;2022-11-20T01:42:47;97762.19;;;0.55;84.43
65756;BME280;52489;47.502;18.940;2022-11-20T01:44:14;97756.25;;;0.55;83.72
65756;BME280;52489;47.502;18.940;2022-11-20T01:47:54;97750.03;;;0.34;86.41
65756;BME280;52489;47.502;18.940;2022-11-20T01:50:13;97751.28;;;0.48;85.86
65756;BME280;52489;47.502;18.940;2022-11-20T01:51:33;97747.53;;;0.39;86.43
65756;BME280;52489;47.502;18.940;2022-11-20T01:52:44;97748.91;;;0.63;85.80
65756;BME280;52489;47.502;18.940;2022-11-20T01:53:48;97749.53;;;0.54;86.39
65756;BME280;52489;47.502;18.940;2022-11-20T01:54:59;97743.59;;;0.53;86.16
65756;BME280;52489;47.502;18.940;2022-11-20T01:56:06;97739.84;;;0.44;86.63
65756;BME280;52489;47.502;18.940;2022-11-20T01:57:12;97730.13;;;0.68;85.69
65756;BME280;52489;47.502;18.940;2022-11-20T01:58:22;97736.47;;;0.60;85.47
65756;BME280;52489;47.502;18.940;2022-11-20T01:59:29;97737.25;;;0.61;85.82
65756;BME280;52489;47.502;18.940;2022-11-20T02:00:35;97729.72;;;0.76;85.13
65756;BME280;52489;47.502;18.940;2022-11-20T02:01:38;97734.59;;;0.56;85.66
65756;BME280;52489;47.502;18.940;2022-11-20T02:02:44;97736.19;;;0.40;86.81
65756;BME280;52489;47.502;18.940;2022-11-20T02:03:49;97738.88;;;0.28;87.68
65756;BME280;52489;47.502;18.940;2022-11-20T02:04:54;97744.31;;;0.32;87.83
65756;BME280;52489;47.502;18.940;2022-11-20T02:06:16;97739.94;;;0.32;87.84
65756;BME280;52489;47.502;18.940;2022-11-20T02:07:22;97742.28;;;0.51;87.26
65756;BME280;52489;47.502;18.940;2022-11-20T02:08:26;97747.97;;;0.53;86.99
65756;BME280;52489;47.502;18.940;2022-11-20T02:09:28;97751.03;;;0.50;87.01
65756;BME280;52489;47.502;18.940;2022-11-20T02:10:31;97744.87;;;0.34;88.00
65756;BME280;52489;47.502;18.940;2022-11-20T02:11:34;97749.84;;;0.23;89.24
65756;BME280;52489;47.502;18.940;2022-11-20T02:12:37;97754.72;;;0.37;88.57
65756;BME280;52489;47.502;18.940;2022-11-20T02:13:59;97754.63;;;0.49;87.97
65756;BME280;52489;47.502;18.940;2022-11-20T02:15:01;97757.50;;;0.35;88.30
65756;BME280;52489;47.502;18.940;2022-11-20T02:16:10;97754.22;;;0.40;88.45
65756;BME280;52489;47.502;18.940;2022-11-20T02:17:13;97751.09;;;0.38;88.86
65756;BME280;52489;47.502;18.940;2022-11-20T02:18:18;97752.91;;;0.37;89.43
65756;BME280;52489;47.502;18.940;2022-11-20T02:19:28;97750.16;;;0.61;88.64
65756;BME280;52489;47.502;18.940;2022-11-20T02:20:32;97750.91;;;0.61;88.54
65756;BME280;52489;47.502;18.940;2022-11-20T02:21:36;97755.94;;;0.51;88.07
65756;BME280;52489;47.502;18.940;2022-11-20T02:22:59;97753.06;;;0.31;89.24
65756;BME280;52489;47.502;18.940;2022-11-20T02:24:11;97755.34;;;0.27;90.11
65756;BME280;52489;47.502;18.940;2022-11-20T02:25:14;97762.75;;;0.23;90.26
65756;BME280;52489;47.502;18.940;2022-11-20T02:26:19;97756.72;;;0.35;90.08
65756;BME280;52489;47.502;18.940;2022-11-20T02:27:24;97761.66;;;0.19;91.09
65756;BME280;52489;47.502;18.940;2022-11-20T02:28:28;97757.75;;;0.34;90.47
65756;BME280;52489;47.502;18.940;2022-11-20T02:30:40;97756.69;;;0.30;90.33
65756;BME280;52489;47.502;18.940;2022-11-20T02:31:43;97750.25;;;0.49;89.73
65756;BME280;52489;47.502;18.940;2022-11-20T02:32:46;97749.75;;;0.69;88.53
65756;BME280;52489;47.502;18.940;2022-11-20T02:33:56;97747.00;;;0.76;88.13
65756;BME280;52489;47.502;18.940;2022-11-20T02:36:33;97727.72;;;0.61;89.26
65756;BME280;52489;47.502;18.940;2022-11-20T02:37:39;97736.09;;;0.52;90.00
65756;BME280;52489;47.502;18.940;2022-11-20T02:38:43;97739.84;;;0.44;90.75
65756;BME280;52489;47.502;18.940;2022-11-20T02:39:48;97724.81;;;0.36;90.79
65756;BME280;52489;47.502;18.940;2022-11-20T02:40:51;97735.34;;;0.34;90.00
65756;BME280;52489;47.502;18.940;2022-11-20T02:41:57;97741.12;;;0.41;89.75
65756;BME280;52489;47.502;18.940;2022-11-20T02:42:59;97734.56;;;0.34;90.00
65756;BME280;52489;47.502;18.940;2022-11-20T02:44:03;97735.50;;;0.28;90.28
65756;BME280;52489;47.502;18.940;2022-11-20T02:45:07;97733.16;;;0.26;90.75
65756;BME280;52489;47.502;18.940;2022-11-20T02:46:10;97731.34;;;0.27;91.60
65756;BME280;52489;47.502;18.940;2022-11-20T02:47:13;97729.41;;;0.34;91.17
65756;BME280;52489;47.502;18.940;2022-11-20T02:48:16;97732.97;;;0.50;91.03
65756;BME280;52489;47.502;18.940;2022-11-20T02:49:26;97726.44;;;0.81;89.60
65756;BME280;52489;47.502;18.940;2022-11-20T02:50:28;97729.72;;;0.76;89.16
65756;BME280;52489;47.502;18.940;2022-11-20T02:51:32;97723.09;;;0.80;89.13
65756;BME280;52489;47.502;18.940;2022-11-20T02:52:34;97727.41;;;0.75;89.67
65756;BME280;52489;47.502;18.940;2022-11-20T02:53:37;97727.25;;;0.64;90.25
65756;BME280;52489;47.502;18.940;2022-11-20T02:54:40;97736.84;;;0.69;90.38
65756;BME280;52489;47.502;18.940;2022-11-20T02:55:44;97744.03;;;0.67;90.10
65756;BME280;52489;47.502;18.940;2022-11-20T02:56:46;97737.03;;;0.62;89.80
65756;BME280;52489;47.502;18.940;2022-11-20T02:57:49;97742.31;;;0.73;89.91
65756;BME280;52489;47.502;18.940;2022-11-20T02:58:52;97743.50;;;0.65;89.91
65756;BME280;52489;47.502;18.940;2022-11-20T02:59:55;97738.19;;;0.72;90.27
65756;BME280;52489;47.502;18.940;2022-11-20T03:00:58;97732.25;;;0.93;89.20
65756;BME280;52489;47.502;18.940;2022-11-20T03:02:01;97730.09;;;0.85;88.99
65756;BME280;52489;47.502;18.940;2022-11-20T03:03:03;97730.50;;;0.77;89.72
65756;BME280;52489;47.502;18.940;2022-11-20T03:04:06;97727.81;;;0.66;90.28
65756;BME280;52489;47.502;18.940;2022-11-20T03:05:09;97719.38;;;0.71;90.55
65756;BME280;52489;47.502;18.940;2022-11-20T03:06:11;97715.81;;;0.99;89.58
65756;BME280;52489;47.502;18.940;2022-11-20T03:07:14;97707.06;;;1.00;88.91
65756;BME280;52489;47.502;18.940;2022-11-20T03:08:17;97720.88;;;0.89;89.52
65756;BME280;52489;47.502;18.940;2022-11-20T03:09:20;97718.41;;;0.77;89.66
65756;BME280;52489;47.502;18.940;2022-11-20T03:10:23;97715.94;;;0.65;90.38
65756;BME280;52489;47.502;18.940;2022-11-20T03:11:26;97718.84;;;0.52;90.84
65756;BME280;52489;47.502;18.940;2022-11-20T03:12:29;97719.38;;;0.71;90.51
65756;BME280;52489;47.502;18.940;2022-11-20T03:13:32;97724.75;;;0.91;89.77
65756;BME280;52489;47.502;18.940;2022-11-20T03:14:35;97720.38;;;1.14;88.82
65756;BME280;52489;47.502;18.940;2022-11-20T03:15:38;97722.25;;;1.19;88.18
65756;BME280;52489;47.502;18.940;2022-11-20T03:16:41;97724.03;;;1.18;88.08
65756;BME280;52489;47.502;18.940;2022-11-20T03:17:44;97720.81;;;0.84;89.48
65756;BME280;52489;47.502;18.940;2022-11-20T03:18:46;97711.81;;;0.86;89.60
65756;BME280;52489;47.502;18.940;2022-11-20T03:19:49;97716.53;;;0.95;88.68
65756;BME280;52489;47.502;18.940;2022-11-20T03:20:57;97717.31;;;0.73;88.95
65756;BME280;52489;47.502;18.940;2022-11-20T03:22:00;97723.50;;;0.72;89.61
65756;BME280;52489;47.502;18.940;2022-11-20T03:23:02;97729.22;;;0.57;89.87
65756;BME280;52489;47.502;18.940;2022-11-20T03:24:05;97737.94;;;0.73;89.99
65756;BME280;52489;47.502;18.940;2022-11-20T03:25:08;97745.59;;;0.68;89.40
65756;BME280;52489;47.502;18.940;2022-11-20T03:26:19;97748.44;;;0.50;89.48
65756;BME280;52489;47.502;18.940;2022-11-20T03:27:23;97752.13;;;0.54;90.24
65756;BME280;52489;47.502;18.940;2022-11-20T03:28:26;97754.91;;;0.69;89.77
65756;BME280;52489;47.502;18.940;2022-11-20T03:29:28;97758.91;;;0.60;88.88
65756;BME280;52489;47.502;18.940;2022-11-20T03:30:31;97751.47;;;0.63;88.33
65756;BME280;52489;47.502;18.940;2022-11-20T03:31:36;97745.84;;;0.66;88.84
65756;BME280;52489;47.502;18.940;2022-11-20T03:32:39;97752.34;;;0.52;89.24
65756;BME280;52489;47.502;18.940;2022-11-20T03:33:42;97752.34;;;0.52;88.60
65756;BME280;52489;47.502;18.940;2022-11-20T03:34:44;97751.50;;;0.47;88.80
65756;BME280;52489;47.502;18.940;2022-11-20T03:35:47;97751.19;;;0.43;89.55
65756;BME280;52489;47.502;18.940;2022-11-20T03:36:50;97736.47;;;0.77;88.57
65756;BME280;52489;47.502;18.940;2022-11-20T03:37:53;97727.03;;;0.88;87.86
65756;BME280;52489;47.502;18.940;2022-11-20T03:38:56;97731.19;;;0.89;87.31
65756;BME280;52489;47.502;18.940;2022-11-20T03:39:58;97736.47;;;0.77;87.33
65756;BME280;52489;47.502;18.940;2022-11-20T03:41:04;97742.25;;;0.67;87.47
65756;BME280;52489;47.502;18.940;2022-11-20T03:42:08;97737.75;;;0.80;87.30
65756;BME280;52489;47.502;18.940;2022-11-20T03:43:32;97739.81;;;1.00;86.49
65756;BME280;52489;47.502;18.940;2022-11-20T03:44:34;97735.25;;;1.07;86.39
65756;BME280;52489;47.502;18.940;2022-11-20T03:45:37;97742.12;;;0.79;87.80
65756;BME280;52489;47.502;18.940;2022-11-20T03:46:40;97742.31;;;0.73;88.99
65756;BME280;52489;47.502;18.940;2022-11-20T03:47:43;97746.63;;;0.67;89.72
65756;BME280;52489;47.502;18.940;2022-11-20T03:48:47;97739.50;;;0.74;89.36
65756;BME280;52489;47.502;18.940;2022-11-20T03:49:53;97737.56;;;0.64;89.47
65756;BME280;52489;47.502;18.940;2022-11-20T03:52:18;97731.56;;;0.98;87.98
65756;BME280;52489;47.502;18.940;2022-11-20T03:53:23;97735.38;;;0.95;88.21
65756;BME280;52489;47.502;18.940;2022-11-20T03:54:25;97743.34;;;0.72;89.19
65756;BME280;52489;47.502;18.940;2022-11-20T03:55:28;97741.06;;;0.75;89.98
65756;BME280;52489;47.502;18.940;2022-11-20T03:56:34;97741.53;;;0.94;89.05
65756;BME280;52489;47.502;18.940;2022-11-20T03:57:41;97742.81;;;1.13;88.51
65756;BME280;52489;47.502;18.940;2022-11-20T03:58:44;97746.44;;;1.12;88.45
65756;BME280;52489;47.502;18.940;2022-11-20T03:59:47;97746.41;;;0.90;89.43
65756;BME280;52489;47.502;18.940;2022-11-20T04:00:50;97738.69;;;1.12;88.92
65756;BME280;52489;47.502;18.940;2022-11-20T04:01:52;97730.81;;;1.02;88.96
65756;BME280;52489;47.502;18.940;2022-11-20T04:02:59;97738.91;;;1.11;88.93
65756;BME280;52489;47.502;18.940;2022-11-20T04:04:02;97731.25;;;1.16;88.57
65756;BME280;52489;47.502;18.940;2022-11-20T04:05:05;97734.19;;;1.25;88.51
65756;BME280;52489;47.502;18.940;2022-11-20T04:06:13;97739.56;;;1.23;88.66
65756;BME280;52489;47.502;18.940;2022-11-20T04:07:17;97746.81;;;1.26;88.64
65756;BME280;52489;47.502;18.940;2022-11-20T04:08:19;97740.31;;;1.19;89.02
65756;BME280;52489;47.502;18.940;2022-11-20T04:09:22;97739.47;;;1.13;89.58
65756;BME280;52489;47.502;18.940;2022-11-20T04:10:25;97731.34;;;1.26;88.95
65756;BME280;52489;47.502;18.940;2022-11-20T04:11:33;97729.87;;;1.35;88.44
65756;BME280;52489;47.502;18.940;2022-11-20T04:12:36;97726.78;;;1.33;88.17
65756;BME280;52489;47.502;18.940;2022-11-20T04:13:39;97723.81;;;1.47;87.62
65756;BME280;52489;47.502;18.940;2022-11-20T04:14:43;97718.06;;;1.40;87.49
65756;BME280;52489;47.502;18.940;2022-11-20T04:15:46;97714.81;;;1.49;86.96
65756;BME280;52489;47.502;18.940;2022-11-20T04:16:48;97708.81;;;1.44;86.63
65756;BME280;52489;47.502;18.940;2022-11-20T04:17:52;97707.34;;;1.53;86.54
65756;BME280;52489;47.502;18.940;2022-11-20T04:18:57;97705.19;;;1.45;86.58
65756;BME280;52489;47.502;18.940;2022-11-20T04:20:01;97699.41;;;1.32;87.39
65756;BME280;52489;47.502;18.940;2022-11-20T04:21:05;97698.28;;;1.23;88.33
65756;BME280;52489;47.502;18.940;2022-11-20T04:22:07;97696.44;;;0.97;89.22
65756;BME280;52489;47.502;18.940;2022-11-20T04:23:10;97700.59;;;0.76;90.93
65756;BME280;52489;47.502;18.940;2022-11-20T04:24:13;97698.66;;;0.88;91.04
65756;BME280;52489;47.502;18.940;2022-11-20T04:25:16;97687.09;;;0.90;90.44
65756;BME280;52489;47.502;18.940;2022-11-20T04:26:19;97695.66;;;0.96;90.27
65756;BME280;52489;47.502;18.940;2022-11-20T04:27:22;97689.84;;;1.06;90.25
65756;BME280;52489;47.502;18.940;2022-11-20T04:28:25;97693.31;;;1.17;89.26
65756;BME280;52489;47.502;18.940;2022-11-20T04:29:28;97688.38;;;1.15;89.37
65756;BME280;52489;47.502;18.940;2022-11-20T04:30:30;97689.81;;;1.01;89.19
65756;BME280;52489;47.502;18.940;2022-11-20T04:31:34;97693.69;;;0.81;90.32
65756;BME280;52489;47.502;18.940;2022-11-20T04:32:37;97698.41;;;0.67;91.74
65756;BME280;52489;47.502;18.940;2022-11-20T04:33:40;97692.56;;;0.72;90.72
65756;BME280;52489;47.502;18.940;2022-11-20T04:34:43;97695.31;;;0.65;90.56
65756;BME280;52489;47.502;18.940;2022-11-20T04:35:47;97687.88;;;0.69;90.78
65756;BME280;52489;47.502;18.940;2022-11-20T04:36:50;97687.09;;;0.68;90.90
65756;BME280;52489;47.502;18.940;2022-11-20T04:37:52;97689.50;;;0.75;90.93
65756;BME280;52489;47.502;18.940;2022-11-20T04:38:57;97692.59;;;0.99;89.55
65756;BME280;52489;47.502;18.940;2022-11-20T04:40:00;97694.97;;;1.01;89.12
65756;BME280;52489;47.502;18.940;2022-11-20T04:41:05;97699.97;;;0.90;89.57
65756;BME280;52489;47.502;18.940;2022-11-20T04:42:09;97699.75;;;0.70;89.51
65756;BME280;52489;47.502;18.940;2022-11-20T04:43:31;97701.06;;;0.73;89.81
65756;BME280;52489;47.502;18.940;2022-11-20T04:44:35;97702.00;;;0.88;89.59
65756;BME280;52489;47.502;18.940;2022-11-20T04:45:37;97692.56;;;0.72;90.09
65756;BME280;52489;47.502;18.940;2022-11-20T04:46:41;97680.97;;;0.97;89.67
65756;BME280;52489;47.502;18.940;2022-11-20T04:47:44;97680.84;;;1.08;89.37
65756;BME280;52489;47.502;18.940;2022-11-20T04:48:47;97678.47;;;1.29;88.36
65756;BME280;52489;47.502;18.940;2022-11-20T04:49:50;97677.00;;;1.38;87.24
65756;BME280;52489;47.502;18.940;2022-11-20T04:50:53;97679.78;;;1.31;87.29
65756;BME280;52489;47.502;18.940;2022-11-20T04:51:56;97679.00;;;1.31;87.47
65756;BME280;52489;47.502;18.940;2022-11-20T04:53:02;97678.25;;;1.30;87.26
65756;BME280;52489;47.502;18.940;2022-11-20T04:54:05;97673.44;;;1.17;87.80
65756;BME280;52489;47.502;18.940;2022-11-20T04:55:08;97667.03;;;1.20;88.61
65756;BME280;52489;47.502;18.940;2022-11-20T04:56:12;97667.88;;;1.25;88.60
65756;BME280;52489;47.502;18.940;2022-11-20T04:57:15;97674.84;;;1.30;88.68
65756;BME280;52489;47.502;18.940;2022-11-20T04:58:18;97663.75;;;1.29;88.81
65756;BME280;52489;47.502;18.940;2022-11-20T04:59:21;97663.00;;;1.29;89.23
65756;BME280;52489;47.502;18.940;2022-11-20T05:00:24;97657.84;;;1.29;89.42
65756;BME280;52489;47.502;18.940;2022-11-20T05:01:27;97665.91;;;1.37;88.95
65756;BME280;52489;47.502;18.940;2022-11-20T05:02:30;97671.56;;;1.07;89.52
65756;BME280;52489;47.502;18.940;2022-11-20T05:03:34;97671.31;;;0.87;92.10
65756;BME280;52489;47.502;18.940;2022-11-20T05:04:43;97666.28;;;0.97;92.16
65756;BME280;52489;47.502;18.940;2022-11-20T05:05:46;97679.41;;;0.96;91.82
65756;BME280;52489;47.502;18.940;2022-11-20T05:06:49;97679.38;;;1.18;90.40
65756;BME280;52489;47.502;18.940;2022-11-20T05:07:52;97684.59;;;1.23;89.74
65756;BME280;52489;47.502;18.940;2022-11-20T05:08:55;97683.41;;;1.08;89.77
65756;BME280;52489;47.502;18.940;2022-11-20T05:09:57;97692.25;;;0.90;90.58
65756;BME280;52489;47.502;18.940;2022-11-20T05:11:02;97693.28;;;0.89;91.05
65756;BME280;52489;47.502;18.940;2022-11-20T05:12:07;97694.22;;;1.05;90.43
65756;BME280;52489;47.502;18.940;2022-11-20T05:13:10;97691.81;;;1.21;90.04
65756;BME280;52489;47.502;18.940;2022-11-20T05:14:13;97689.22;;;1.21;90.14
65756;BME280;52489;47.502;18.940;2022-11-20T05:15:16;97690.47;;;1.18;90.18
65756;BME280;52489;47.502;18.940;2022-11-20T05:16:21;97685.00;;;1.36;89.67
65756;BME280;52489;47.502;18.940;2022-11-20T05:17:25;97682.09;;;1.28;89.38
65756;BME280;52489;47.502;18.940;2022-11-20T05:18:27;97677.06;;;1.43;88.72
65756;BME280;52489;47.502;18.940;2022-11-20T05:19:30;97679.84;;;1.36;88.13
65756;BME280;52489;47.502;18.940;2022-11-20T05:20:33;97678.41;;;1.24;88.46
65756;BME280;52489;47.502;18.940;2022-11-20T05:21:35;97679.78;;;1.31;89.10
65756;BME280;52489;47.502;18.940;2022-11-20T05:22:38;97675.94;;;1.34;89.04
65756;BME280;52489;47.502;18.940;2022-11-20T05:23:41;97680.69;;;1.42;89.35
65756;BME280;52489;47.502;18.940;2022-11-20T05:24:44;97680.97;;;1.46;89.11
65756;BME280;52489;47.502;18.940;2022-11-20T05:25:46;97676.28;;;1.16;89.32
65756;BME280;52489;47.502;18.940;2022-11-20T05:26:49;97678.56;;;1.12;90.13
65756;BME280;52489;47.502;18.940;2022-11-20T05:27:53;97689.66;;;0.90;89.79
65756;BME280;52489;47.502;18.940;2022-11-20T05:28:55;97677.44;;;0.81;90.51
65756;BME280;52489;47.502;18.940;2022-11-20T05:29:58;97667.84;;;0.98;89.80
65756;BME280;52489;47.502;18.940;2022-11-20T05:31:12;97662.16;;;1.23;89.22
65756;BME280;52489;47.502;18.940;2022-11-20T05:32:15;97656.84;;;1.35;88.36
65756;BME280;52489;47.502;18.940;2022-11-20T05:33:17;97662.28;;;1.39;87.85
65756;BME280;52489;47.502;18.940;2022-11-20T05:34:20;97659.34;;;1.25;88.21
65756;BME280;52489;47.502;18.940;2022-11-20T05:35:23;97653.50;;;1.07;90.06
65756;BME280;52489;47.502;18.940;2022-11-20T05:36:26;97658.53;;;0.97;91.31
65756;BME280;52489;47.502;18.940;2022-11-20T05:37:28;97658.44;;;0.87;92.03
65756;BME280;52489;47.502;18.940;2022-11-20T05:38:31;97660.09;;;0.76;92.29
65756;BME280;52489;47.502;18.940;2022-11-20T05:39:34;97661.25;;;0.85;92.38
65756;BME280;52489;47.502;18.940;2022-11-20T05:40:37;97669.72;;;0.81;93.02
65756;BME280;52489;47.502;18.940;2022-11-20T05:41:40;97662.69;;;0.98;92.72
65756;BME280;52489;47.502;18.940;2022-11-20T05:42:42;97671.94;;;1.21;91.79
65756;BME280;52489;47.502;18.940;2022-11-20T05:43:47;97663.09;;;1.39;90.92
65756;BME280;52489;47.502;18.940;2022-11-20T05:44:50;97664.94;;;1.44;89.98
65756;BME280;52489;47.502;18.940;2022-11-20T05:45:53;97663.09;;;1.39;90.12
65756;BME280;52489;47.502;18.940;2022-11-20T05:46:57;97668.06;;;1.46;89.97
65756;BME280;52489;47.502;18.940;2022-11-20T05:48:00;97673.72;;;1.43;89.90
65756;BME280;52489;47.502;18.940;2022-11-20T05:49:03;97665.50;;;1.51;89.89